This is the latest recevied weather packets stored in our database for station/object GM0VGI-13. If no packets are shown the sender has not sent any weather packets the latest 1 day(s).
| Time | Temp. | Humidity | Pressure | Rain* | Wind** | Luminosity | Snow |
|---|---|---|---|---|---|---|---|
| 1778104085 | 6.11° C | 76% | 1013.3 hPa | 0 mm | - | - | - |
| 1778101325 | 6.11° C | 76% | 1013.4 hPa | 0 mm | - | - | - |
| 1778101205 | 6.11° C | 76% | 1013.4 hPa | 0 mm | - | - | - |
| 1778101085 | 6.67° C | 76% | 1013.4 hPa | 0 mm | - | - | - |
| 1778099283 | 6.67° C | 76% | 1013.4 hPa | 0 mm | - | - | - |
| 1778097125 | 6.67° C | 75% | 1013.5 hPa | 0 mm | - | - | - |
| 1778093405 | 7.22° C | 72% | 1013.4 hPa | 0 mm | - | - | - |
| 1778092923 | 7.22° C | 72% | 1013.3 hPa | 0 mm | - | - | - |
| 1778091484 | 7.78° C | 71% | 1013.4 hPa | 0 mm | - | - | - |
| 1778091365 | 7.78° C | 71% | 1013.4 hPa | 0 mm | - | - | - |
| 1778090885 | 7.78° C | 69% | 1013.3 hPa | 0 mm | - | - | - |
| 1778088123 | 8.33° C | 67% | 1013.4 hPa | 0 mm | - | - | - |
| 1778085244 | 10.56° C | 61% | 1013.4 hPa | 0 mm | - | - | - |
| 1778081163 | 10° C | 65% | 1013.4 hPa | 0 mm | - | - | - |
| 1778081045 | 10° C | 66% | 1013.5 hPa | 0 mm | - | - | - |
| 1778079843 | 8.89° C | 67% | 1013.7 hPa | 0 mm | - | - | - |
| 1778078523 | 8.89° C | 66% | 1013.7 hPa | 0 mm | - | - | - |
| 1778076484 | 10° C | 63% | 1014 hPa | 0 mm | - | - | - |
| 1778075525 | 10.56° C | 62% | 1014.1 hPa | 0 mm | - | - | - |
| 1778075405 | 11.11° C | 62% | 1014.1 hPa | 0 mm | - | - | - |
| 1778073243 | 10.56° C | 63% | 1014.3 hPa | 0 mm | - | - | - |
| 1778071565 | 9.44° C | 65% | 1014.5 hPa | 0 mm | - | - | - |
| 1778066883 | 10.56° C | 53% | 1014.5 hPa | 0 mm | - | - | - |
| 1778064245 | 11.11° C | 57% | 1014.8 hPa | 0 mm | - | - | - |
| 1778063525 | 10.56° C | 56% | 1014.8 hPa | 0 mm | - | - | - |
* Rain latest hour (hover to see other rain measurements)
** Current wind speed in m/s (hover to see current wind gust speed)